Time;durP1;ratioP1;P1;durP2;ratioP2;P2;SDS_P1;SDS_P2;PMS_P1;PMS_P2;Temp;Humidity;BMP_temperature;BMP_pressure;BME280_temperature;BME280_humidity;BME280_pressure;Samples;Min_cycle;Max_cycle;Signal;HPM_P1;HPM_P2
2023/02/22 00:03:11;;;;;;;;;;;;;;;20.63;44.47;101022.69;7258197;19;154708;-57
2023/02/22 00:05:39;;;;;;;;;;;;;;;20.66;44.39;101018.44;7254873;19;153727;-57
2023/02/22 00:10:37;;;;;;;;;;;;;;;20.68;44.69;101008.56;7255313;19;152882;-57
2023/02/22 00:13:06;;;;;;;;;;;;;;;20.70;44.48;101008.25;7253715;19;154378;-57
2023/02/22 00:15:33;;;;;;;;;;;;;;;20.69;44.47;101009.41;7249887;19;154400;-58
2023/02/22 00:18:01;;;;;;;;;;;;;;;20.71;44.31;100999.53;7208946;19;155502;-57
2023/02/22 00:20:27;;;;;;;;;;;;;;;20.72;44.38;100995.56;7263230;19;154351;-57
2023/02/22 00:22:54;;;;;;;;;;;;;;;20.69;44.90;100984.97;7255074;19;154175;-58
2023/02/22 00:25:22;;;;;;;;;;;;;;;20.70;44.79;100975.41;7249418;19;152655;-58
2023/02/22 00:27:51;;;;;;;;;;;;;;;20.68;45.09;100974.03;7246827;19;153667;-57
2023/02/22 00:30:20;;;;;;;;;;;;;;;20.67;45.03;100980.81;7250905;19;152577;-58
2023/02/22 00:32:48;;;;;;;;;;;;;;;20.64;45.05;100976.63;7252700;19;152444;-57
2023/02/22 00:35:16;;;;;;;;;;;;;;;20.62;45.44;100987.34;7254346;19;153836;-57
2023/02/22 00:37:43;;;;;;;;;;;;;;;20.61;45.11;100974.44;7252539;19;153284;-57
2023/02/22 00:40:11;;;;;;;;;;;;;;;20.61;45.23;100996.91;7255896;19;153323;-58
2023/02/22 00:42:38;;;;;;;;;;;;;;;20.60;45.52;100997.19;7258698;19;154310;-57
2023/02/22 00:45:06;;;;;;;;;;;;;;;20.58;45.39;101003.13;7252976;19;153219;-58
2023/02/22 00:47:33;;;;;;;;;;;;;;;20.57;45.38;101001.47;7207874;19;157572;-56
2023/02/22 00:50:00;;;;;;;;;;;;;;;20.58;45.22;101008.72;7247848;19;153017;-58
2023/02/22 00:52:27;;;;;;;;;;;;;;;20.56;45.70;101007.38;7249761;19;153248;-57
2023/02/22 00:54:54;;;;;;;;;;;;;;;20.56;45.54;101008.22;7252085;19;153715;-57
2023/02/22 00:57:21;;;;;;;;;;;;;;;20.52;45.69;100995.94;7253056;19;153484;-57
2023/02/22 00:59:49;;;;;;;;;;;;;;;20.53;45.76;100993.97;7254534;19;153609;-57
2023/02/22 01:02:16;;;;;;;;;;;;;;;20.51;45.97;100999.88;7256929;19;153038;-57
2023/02/22 01:04:43;;;;;;;;;;;;;;;20.51;45.88;100994.28;7251617;19;154519;-57
2023/02/22 01:07:10;;;;;;;;;;;;;;;20.51;45.96;100990.63;7252693;19;154072;-57
2023/02/22 01:09:38;;;;;;;;;;;;;;;20.50;46.17;100994.56;7254913;19;153368;-57
2023/02/22 01:12:06;;;;;;;;;;;;;;;20.48;46.14;100997.69;7255310;19;153583;-57
2023/02/22 01:14:33;;;;;;;;;;;;;;;20.49;45.79;100987.31;7201167;19;155607;-57
2023/02/22 01:17:00;;;;;;;;;;;;;;;20.42;46.48;100982.91;7251822;19;152538;-56
2023/02/22 01:19:27;;;;;;;;;;;;;;;20.45;46.27;100986.22;7255224;19;153753;-55
2023/02/22 01:21:54;;;;;;;;;;;;;;;20.45;46.39;100987.06;7252341;19;154731;-56
2023/02/22 01:24:22;;;;;;;;;;;;;;;20.40;46.64;100981.53;7262312;19;152668;-56
2023/02/22 01:26:50;;;;;;;;;;;;;;;20.38;46.55;100983.84;7253125;19;154045;-58
2023/02/22 01:29:17;;;;;;;;;;;;;;;20.35;47.03;100982.47;7249061;19;152715;-56
2023/02/22 01:31:50;;;;;;;;;;;;;;;20.32;47.08;100971.84;7249916;19;154527;-56
2023/02/22 01:34:17;;;;;;;;;;;;;;;20.29;47.15;100978.06;7252881;19;154966;-58
2023/02/22 01:36:44;;;;;;;;;;;;;;;20.26;46.89;100964.63;7252679;19;154400;-56
2023/02/22 01:39:11;;;;;;;;;;;;;;;20.24;46.86;100977.31;7210698;19;157209;-56
2023/02/22 01:41:38;;;;;;;;;;;;;;;20.22;47.13;100972.00;7246371;19;153955;-57
2023/02/22 01:44:08;;;;;;;;;;;;;;;20.21;47.17;100973.16;7250820;19;152233;-56
2023/02/22 01:46:35;;;;;;;;;;;;;;;20.19;46.98;100972.63;7258590;19;153337;-56
2023/02/22 01:49:05;;;;;;;;;;;;;;;20.18;47.03;100961.69;7249765;19;153509;-56
2023/02/22 01:51:36;;;;;;;;;;;;;;;20.16;47.17;100961.19;7254300;19;154222;-56
2023/02/22 01:54:06;;;;;;;;;;;;;;;20.15;47.09;100962.31;7248797;19;154023;-56
2023/02/22 01:56:35;;;;;;;;;;;;;;;20.15;47.48;100967.91;7254602;19;153119;-56
2023/02/22 01:59:05;;;;;;;;;;;;;;;20.13;47.29;100971.00;7251442;19;153905;-56
2023/02/22 02:01:34;;;;;;;;;;;;;;;20.12;47.54;100979.75;7249788;19;154000;-56
2023/02/22 02:04:04;;;;;;;;;;;;;;;20.10;47.16;100965.19;7248481;19;153452;-56
2023/02/22 02:06:32;;;;;;;;;;;;;;;20.07;47.14;100965.81;7202516;19;156464;-56
2023/02/22 02:09:03;;;;;;;;;;;;;;;20.05;47.10;100963.31;7253996;19;155230;-57
2023/02/22 02:11:31;;;;;;;;;;;;;;;20.03;47.41;100956.34;7248591;19;156450;-58
2023/02/22 02:13:58;;;;;;;;;;;;;;;20.01;47.17;100955.81;7248996;19;154334;-56
2023/02/22 02:16:34;;;;;;;;;;;;;;;20.00;47.13;100960.56;7248216;19;153034;-56
2023/02/22 02:19:02;;;;;;;;;;;;;;;19.97;47.17;100958.38;7250825;19;153802;-56
2023/02/22 02:21:32;;;;;;;;;;;;;;;19.96;47.19;100957.56;7249774;19;154618;-59
2023/02/22 02:24:03;;;;;;;;;;;;;;;19.93;47.46;100948.91;7248619;19;153868;-57
2023/02/22 02:26:33;;;;;;;;;;;;;;;19.92;47.42;100950.06;7249295;19;154183;-56
2023/02/22 02:29:03;;;;;;;;;;;;;;;19.89;47.31;100947.88;7247736;19;154206;-56
2023/02/22 02:31:33;;;;;;;;;;;;;;;19.88;47.27;100941.44;7209410;19;155961;-57
2023/02/22 02:34:14;;;;;;;;;;;;;;;19.86;47.60;100940.88;7243760;19;155930;-57
2023/02/22 02:36:45;;;;;;;;;;;;;;;19.84;47.55;100940.38;7250125;19;153454;-56
2023/02/22 02:39:15;;;;;;;;;;;;;;;19.83;47.41;100938.69;7244939;19;153377;-56
2023/02/22 02:41:46;;;;;;;;;;;;;;;19.81;47.70;100940.13;7248598;19;155767;-56
2023/02/22 02:44:16;;;;;;;;;;;;;;;19.81;47.75;100938.16;7249759;19;154146;-56
2023/02/22 02:46:48;;;;;;;;;;;;;;;19.80;47.91;100928.09;7246695;19;153704;-57
2023/02/22 02:49:21;;;;;;;;;;;;;;;19.79;47.72;100928.38;7248819;19;154069;-56
2023/02/22 02:51:51;;;;;;;;;;;;;;;19.78;47.80;100919.16;7251318;19;153511;-57
2023/02/22 02:54:19;;;;;;;;;;;;;;;19.77;47.99;100922.25;7263284;19;156213;-57
2023/02/22 02:56:46;;;;;;;;;;;;;;;19.75;47.72;100921.72;7204763;19;153668;-57
2023/02/22 02:59:16;;;;;;;;;;;;;;;19.72;48.23;100914.75;7250641;19;154023;-57
2023/02/22 03:01:46;;;;;;;;;;;;;;;19.73;48.20;100907.16;7255302;19;154347;-57
2023/02/22 03:04:14;;;;;;;;;;;;;;;19.71;47.86;100907.50;7257970;19;153169;-56
2023/02/22 03:06:42;;;;;;;;;;;;;;;19.70;47.88;100904.97;7255920;19;153244;-56
2023/02/22 03:09:17;;;;;;;;;;;;;;;19.68;48.00;100904.44;7253077;19;154219;-57
2023/02/22 03:11:49;;;;;;;;;;;;;;;19.67;48.23;100900.81;7254349;19;153479;-57
2023/02/22 03:14:19;;;;;;;;;;;;;;;19.67;48.06;100897.19;7261183;19;153437;-56
2023/02/22 03:16:51;;;;;;;;;;;;;;;19.65;48.30;100897.50;7255883;19;154475;-57
2023/02/22 03:19:21;;;;;;;;;;;;;;;19.65;48.60;100891.03;7253765;19;153754;-56
2023/02/22 03:21:54;;;;;;;;;;;;;;;19.62;48.27;100886.06;7222997;19;154869;-58
2023/02/22 03:24:24;;;;;;;;;;;;;;;19.62;48.70;100894.47;7242743;19;153776;-59
2023/02/22 03:26:58;;;;;;;;;;;;;;;19.61;48.82;100892.78;7251714;19;154736;-58
2023/02/22 03:29:26;;;;;;;;;;;;;;;19.58;48.87;100887.81;7253379;19;153322;-58
2023/02/22 03:32:00;;;;;;;;;;;;;;;19.57;49.04;100889.78;7248366;19;152209;-56
2023/02/22 03:34:31;;;;;;;;;;;;;;;19.56;48.85;100882.50;7253541;19;155307;-56
2023/02/22 03:37:01;;;;;;;;;;;;;;;19.54;48.85;100879.97;7263535;19;154285;-56
2023/02/22 03:39:30;;;;;;;;;;;;;;;19.54;49.06;100873.53;7254555;19;153671;-56
2023/02/22 03:42:03;;;;;;;;;;;;;;;19.52;48.99;100868.25;7255072;19;153682;-56
2023/02/22 03:44:31;;;;;;;;;;;;;;;19.52;49.24;100865.47;7251715;19;152684;-57
2023/02/22 03:47:01;;;;;;;;;;;;;;;19.51;48.89;100877.78;7254719;19;153610;-56
2023/02/22 03:49:28;;;;;;;;;;;;;;;19.52;49.15;100875.84;7204592;19;153809;-56
2023/02/22 03:51:56;;;;;;;;;;;;;;;19.48;48.96;100863.56;7253289;19;153272;-56
2023/02/22 03:54:23;;;;;;;;;;;;;;;19.48;49.41;100860.75;7254674;19;153112;-56
2023/02/22 03:56:53;;;;;;;;;;;;;;;19.47;48.92;100859.94;7253404;19;153282;-56
2023/02/22 03:59:24;;;;;;;;;;;;;;;19.45;48.92;100850.13;7258371;19;153554;-56
2023/02/22 04:01:51;;;;;;;;;;;;;;;19.44;48.91;100854.91;7250784;19;153794;-56
2023/02/22 04:04:20;;;;;;;;;;;;;;;19.41;49.05;100857.47;7254525;19;154098;-56
2023/02/22 04:06:47;;;;;;;;;;;;;;;19.42;49.02;100854.38;7251938;19;154483;-56
2023/02/22 04:09:14;;;;;;;;;;;;;;;19.41;49.37;100851.84;7252401;19;154659;-56
2023/02/22 04:11:41;;;;;;;;;;;;;;;19.39;49.01;100854.97;7249961;19;152857;-56
2023/02/22 04:14:08;;;;;;;;;;;;;;;19.40;49.36;100855.78;7202690;19;153085;-56
2023/02/22 04:16:35;;;;;;;;;;;;;;;19.37;49.36;100848.84;7248041;19;154144;-56
2023/02/22 04:19:02;;;;;;;;;;;;;;;19.36;48.92;100849.13;7256135;19;153649;-56
2023/02/22 04:21:29;;;;;;;;;;;;;;;19.36;49.38;100854.72;7262990;19;153732;-56
2023/02/22 04:23:56;;;;;;;;;;;;;;;19.33;49.13;100856.19;7254658;19;154143;-56
2023/02/22 04:26:24;;;;;;;;;;;;;;;19.33;48.75;100846.94;7256208;19;153094;-58
2023/02/22 04:28:51;;;;;;;;;;;;;;;19.30;48.94;100845.59;7251861;19;154514;-58
2023/02/22 04:31:18;;;;;;;;;;;;;;;19.30;49.16;100847.56;7252710;19;153438;-58
2023/02/22 04:33:45;;;;;;;;;;;;;;;19.27;49.33;100840.56;7248427;19;153006;-58
2023/02/22 04:36:14;;;;;;;;;;;;;;;19.28;49.28;100838.63;7252518;19;153107;-58
2023/02/22 04:38:42;;;;;;;;;;;;;;;19.27;49.30;100834.97;7249115;19;153596;-58
2023/02/22 04:41:10;;;;;;;;;;;;;;;19.24;49.50;100841.19;7201343;19;157984;-58
2023/02/22 04:43:37;;;;;;;;;;;;;;;19.26;49.31;100843.69;7259153;19;153274;-57
2023/02/22 04:46:04;;;;;;;;;;;;;;;19.24;49.50;100841.19;7249601;19;152691;-57
2023/02/22 04:48:31;;;;;;;;;;;;;;;19.22;49.22;100842.63;7251792;19;154576;-58
2023/02/22 04:50:58;;;;;;;;;;;;;;;19.22;49.09;100837.84;7254270;19;153277;-58
2023/02/22 04:53:25;;;;;;;;;;;;;;;19.20;49.24;100839.28;7254329;19;153914;-58
2023/02/22 04:55:52;;;;;;;;;;;;;;;19.18;49.63;100819.16;7252510;19;155164;-58
2023/02/22 04:58:19;;;;;;;;;;;;;;;19.17;49.19;100829.50;7252441;19;153801;-57
2023/02/22 05:00:46;;;;;;;;;;;;;;;19.16;49.57;100824.22;7250187;19;154860;-58
2023/02/22 05:03:13;;;;;;;;;;;;;;;19.16;49.53;100813.88;7250349;19;154431;-58
2023/02/22 05:05:40;;;;;;;;;;;;;;;19.15;49.35;100814.16;7217628;19;158199;-58
2023/02/22 05:08:08;;;;;;;;;;;;;;;19.13;49.75;100810.81;7246520;19;152645;-58
2023/02/22 05:10:35;;;;;;;;;;;;;;;19.13;49.37;100819.22;7252547;19;153316;-58
2023/02/22 05:13:02;;;;;;;;;;;;;;;19.10;49.43;100826.28;7251376;19;153980;-58
2023/02/22 05:15:29;;;;;;;;;;;;;;;19.09;49.85;100821.78;7247819;19;153049;-58
2023/02/22 05:17:56;;;;;;;;;;;;;;;19.07;49.71;100826.88;7253411;19;153410;-58
2023/02/22 05:20:26;;;;;;;;;;;;;;;19.08;49.72;100826.56;7252098;19;153123;-56
2023/02/22 05:22:54;;;;;;;;;;;;;;;19.10;49.93;100818.69;7249788;19;154317;-56
2023/02/22 05:25:21;;;;;;;;;;;;;;;19.16;49.41;100815.84;7258970;19;153188;-58
2023/02/22 05:27:49;;;;;;;;;;;;;;;19.24;49.43;100818.78;7247931;19;152598;-58
2023/02/22 05:30:17;;;;;;;;;;;;;;;19.28;49.84;100821.81;7249808;19;153687;-58
2023/02/22 05:32:44;;;;;;;;;;;;;;;19.35;49.63;100813.88;7216022;19;155097;-58
2023/02/22 05:35:12;;;;;;;;;;;;;;;19.39;49.88;100810.16;7239650;19;156104;-58
2023/02/22 05:37:39;;;;;;;;;;;;;;;19.46;49.71;100821.00;7250072;19;152995;-57
2023/02/22 05:40:07;;;;;;;;;;;;;;;19.53;49.79;100810.25;7252625;19;153555;-58
2023/02/22 05:42:33;;;;;;;;;;;;;;;19.61;49.88;100812.34;7250556;19;153315;-58
2023/02/22 05:45:01;;;;;;;;;;;;;;;19.69;49.59;100814.44;7250867;19;154228;-58
2023/02/22 05:47:28;;;;;;;;;;;;;;;19.76;50.02;100808.47;7251790;19;153111;-58
2023/02/22 05:49:55;;;;;;;;;;;;;;;19.83;49.76;100815.34;7249387;19;154281;-58
2023/02/22 05:52:22;;;;;;;;;;;;;;;19.90;49.42;100800.91;7247344;19;154184;-58
2023/02/22 05:54:49;;;;;;;;;;;;;;;19.97;49.07;100807.78;7249644;19;154321;-58
2023/02/22 05:57:16;;;;;;;;;;;;;;;20.05;49.32;100806.25;7214015;19;159837;-58
2023/02/22 05:59:43;;;;;;;;;;;;;;;20.09;49.08;100801.66;7249663;19;153185;-57
2023/02/22 06:02:10;;;;;;;;;;;;;;;20.14;49.15;100812.81;7250338;19;152534;-56
2023/02/22 06:04:38;;;;;;;;;;;;;;;20.21;48.98;100806.81;7253169;19;153382;-56
2023/02/22 06:07:05;;;;;;;;;;;;;;;20.26;49.02;100804.69;7249703;19;154616;-56
2023/02/22 06:09:33;;;;;;;;;;;;;;;20.31;48.87;100796.22;7258973;19;155780;-56
2023/02/22 06:11:59;;;;;;;;;;;;;;;20.36;48.57;100807.34;7249022;19;153065;-56
2023/02/22 06:14:27;;;;;;;;;;;;;;;20.42;48.29;100808.91;7248261;19;153776;-56
2023/02/22 06:16:54;;;;;;;;;;;;;;;20.47;48.47;100807.16;7249807;19;153533;-57
2023/02/22 06:19:21;;;;;;;;;;;;;;;20.51;48.35;100809.03;7251389;19;153882;-56
2023/02/22 06:21:50;;;;;;;;;;;;;;;20.55;48.21;100801.63;7241913;19;155718;-56
2023/02/22 06:24:18;;;;;;;;;;;;;;;20.59;48.11;100796.22;7216621;19;154960;-58
2023/02/22 06:26:45;;;;;;;;;;;;;;;20.64;48.06;100796.97;7251292;19;153301;-58
2023/02/22 06:29:12;;;;;;;;;;;;;;;20.69;48.06;100788.44;7256021;19;155199;-58
2023/02/22 06:31:39;;;;;;;;;;;;;;;20.73;47.52;100792.28;7264872;19;152444;-58
2023/02/22 06:34:06;;;;;;;;;;;;;;;20.77;47.53;100787.69;7256311;19;153316;-58
2023/02/22 06:36:33;;;;;;;;;;;;;;;20.80;47.49;100787.06;7255153;19;152795;-59
2023/02/22 06:39:00;;;;;;;;;;;;;;;20.82;47.47;100787.59;7254701;19;154201;-58
2023/02/22 06:41:27;;;;;;;;;;;;;;;20.84;47.01;100787.28;7255674;19;153280;-58
2023/02/22 06:43:55;;;;;;;;;;;;;;;20.86;47.25;100799.00;7257317;19;152579;-58
2023/02/22 06:46:22;;;;;;;;;;;;;;;20.88;46.87;100807.97;7255709;19;152997;-58
2023/02/22 06:48:50;;;;;;;;;;;;;;;20.90;47.02;100816.06;7205607;19;155545;-59
2023/02/22 06:51:17;;;;;;;;;;;;;;;20.91;46.94;100812.09;7256102;19;154041;-62
2023/02/22 06:53:44;;;;;;;;;;;;;;;20.94;47.09;100817.91;7262216;19;152911;-57
2023/02/22 06:56:11;;;;;;;;;;;;;;;20.94;46.79;100817.91;7258160;19;154745;-58
2023/02/22 06:58:39;;;;;;;;;;;;;;;20.95;46.96;100813.97;7256706;19;153505;-58
2023/02/22 07:01:06;;;;;;;;;;;;;;;20.96;47.14;100821.25;7253239;19;154462;-58
2023/02/22 07:03:34;;;;;;;;;;;;;;;20.95;46.93;100810.31;7256086;19;153960;-58
2023/02/22 07:06:01;;;;;;;;;;;;;;;20.93;46.80;100818.25;7255047;19;154437;-58
2023/02/22 07:08:28;;;;;;;;;;;;;;;20.94;46.75;100815.13;7254582;19;153277;-58
2023/02/22 07:10:55;;;;;;;;;;;;;;;20.92;47.01;100810.97;7260187;19;153181;-58
2023/02/22 07:13:22;;;;;;;;;;;;;;;20.89;46.76;100818.06;7254904;19;155146;-58
2023/02/22 07:15:50;;;;;;;;;;;;;;;20.92;47.35;100817.41;7262282;19;154196;-58
2023/02/22 07:18:17;;;;;;;;;;;;;;;20.92;46.79;100813.78;7261231;19;153880;-58
2023/02/22 07:20:44;;;;;;;;;;;;;;;20.88;46.99;100816.38;7258733;19;153289;-58
2023/02/22 07:23:14;;;;;;;;;;;;;;;20.85;46.82;100820.63;7256027;19;153055;-58
2023/02/22 07:25:42;;;;;;;;;;;;;;;20.88;46.93;100818.38;7259082;19;153882;-58
2023/02/22 07:28:09;;;;;;;;;;;;;;;20.91;46.90;100820.53;7253917;19;154549;-58
2023/02/22 07:30:37;;;;;;;;;;;;;;;20.95;46.78;100825.22;7257324;19;154116;-58
2023/02/22 07:33:05;;;;;;;;;;;;;;;20.84;45.87;100824.63;7259728;19;153457;-57
2023/02/22 07:35:35;;;;;;;;;;;;;;;20.82;45.81;100831.69;7267142;19;152904;-58
2023/02/22 07:38:05;;;;;;;;;;;;;;;20.80;45.24;100831.97;7253727;19;154734;-58
2023/02/22 07:40:32;;;;;;;;;;;;;;;20.84;45.21;100837.81;7253821;19;154255;-58
2023/02/22 07:43:00;;;;;;;;;;;;;;;20.82;44.69;100837.28;7254795;19;152676;-58
2023/02/22 07:45:29;;;;;;;;;;;;;;;20.80;44.02;100839.59;7255984;19;154380;-58
2023/02/22 07:47:56;;;;;;;;;;;;;;;20.81;43.81;100836.47;7255973;19;154009;-58
2023/02/22 07:50:24;;;;;;;;;;;;;;;20.82;43.94;100826.06;7257557;19;153981;-58
2023/02/22 07:52:53;;;;;;;;;;;;;;;20.78;43.65;100839.06;7256808;19;153357;-58
2023/02/22 07:55:21;;;;;;;;;;;;;;;20.78;43.82;100836.25;7254927;19;153649;-58
2023/02/22 07:57:50;;;;;;;;;;;;;;;20.77;43.24;100828.97;7261498;19;152866;-58
2023/02/22 08:00:20;;;;;;;;;;;;;;;20.76;43.30;100838.53;7252725;19;154296;-58
2023/02/22 08:02:47;;;;;;;;;;;;;;;20.75;43.18;100836.91;7258221;19;153793;-58
2023/02/22 08:05:14;;;;;;;;;;;;;;;20.72;42.70;100837.50;7257807;19;153696;-58
2023/02/22 08:07:42;;;;;;;;;;;;;;;20.72;42.67;100843.13;7249937;19;153444;-59
2023/02/22 08:10:10;;;;;;;;;;;;;;;20.72;42.65;100843.13;7257231;19;153183;-58
2023/02/22 08:12:37;;;;;;;;;;;;;;;20.71;42.61;100845.13;7254259;19;153413;-58
2023/02/22 08:15:06;;;;;;;;;;;;;;;20.67;42.22;100844.03;7254194;19;154220;-58
2023/02/22 08:17:33;;;;;;;;;;;;;;;20.49;42.85;100842.16;7255850;19;153584;-57
2023/02/22 08:20:00;;;;;;;;;;;;;;;20.59;43.44;100839.16;7263598;19;155447;-57
2023/02/22 08:22:28;;;;;;;;;;;;;;;20.64;43.65;100844.69;7254001;19;152541;-56
2023/02/22 08:24:55;;;;;;;;;;;;;;;20.63;43.76;100843.00;7252255;19;155289;-56
2023/02/22 08:27:24;;;;;;;;;;;;;;;20.61;43.97;100842.50;7253607;19;155295;-56
2023/02/22 08:29:51;;;;;;;;;;;;;;;20.63;44.54;100842.19;7255021;19;153474;-56
2023/02/22 08:32:18;;;;;;;;;;;;;;;20.70;44.55;100851.03;7255038;19;154067;-56
2023/02/22 08:34:46;;;;;;;;;;;;;;;20.71;44.29;100841.47;7253503;19;154247;-58
2023/02/22 08:37:16;;;;;;;;;;;;;;;20.75;44.93;100848.97;7255187;19;152647;-57
2023/02/22 08:39:43;;;;;;;;;;;;;;;20.71;44.98;100847.94;7255286;19;155855;-56
2023/02/22 08:42:11;;;;;;;;;;;;;;;20.73;44.42;100850.41;7259865;19;155083;-56
2023/02/22 08:44:39;;;;;;;;;;;;;;;20.71;43.98;100856.34;7254998;19;152885;-56
2023/02/22 08:47:06;;;;;;;;;;;;;;;20.70;44.22;100851.88;7252962;19;153388;-56
2023/02/22 08:49:34;;;;;;;;;;;;;;;20.63;44.24;100845.81;7251945;19;153179;-57
2023/02/22 08:52:01;;;;;;;;;;;;;;;20.62;44.05;100837.72;7251978;19;152629;-56
2023/02/22 08:54:29;;;;;;;;;;;;;;;20.59;44.19;100829.91;7249548;19;155093;-56
2023/02/22 08:56:56;;;;;;;;;;;;;;;20.54;44.18;100836.47;7254765;19;154406;-56
2023/02/22 08:59:23;;;;;;;;;;;;;;;20.56;44.09;100837.00;7209018;19;159698;-56
2023/02/22 09:01:50;;;;;;;;;;;;;;;20.54;44.12;100847.69;7242889;19;153856;-56
2023/02/22 09:04:17;;;;;;;;;;;;;;;20.47;44.71;100841.66;7260783;19;152289;-56
2023/02/22 09:06:50;;;;;;;;;;;;;;;20.44;44.47;100850.72;7251432;19;153164;-56
2023/02/22 09:09:20;;;;;;;;;;;;;;;20.45;44.43;100845.91;7249425;19;152561;-56
2023/02/22 09:11:47;;;;;;;;;;;;;;;20.44;44.55;100847.06;7251027;19;154087;-56
2023/02/22 09:14:18;;;;;;;;;;;;;;;20.43;44.66;100849.03;7248036;19;154151;-56
2023/02/22 09:16:45;;;;;;;;;;;;;;;20.38;44.46;100847.16;7254270;19;152803;-56
2023/02/22 09:19:12;;;;;;;;;;;;;;;20.41;44.40;100842.91;7252253;19;153695;-56
2023/02/22 09:21:39;;;;;;;;;;;;;;;20.36;44.42;100848.59;7251450;19;154009;-58
2023/02/22 09:24:07;;;;;;;;;;;;;;;20.34;44.65;100848.09;7250390;19;154580;-56
2023/02/22 09:26:38;;;;;;;;;;;;;;;20.30;44.66;100844.25;7251301;19;152477;-56
2023/02/22 09:29:08;;;;;;;;;;;;;;;20.27;44.66;100845.66;7251798;19;153737;-56
2023/02/22 09:31:36;;;;;;;;;;;;;;;20.29;44.51;100846.19;7250314;19;153945;-56
2023/02/22 09:34:12;;;;;;;;;;;;;;;20.27;44.70;100851.25;7252030;19;154058;-56
2023/02/22 09:36:40;;;;;;;;;;;;;;;20.23;44.84;100850.22;7251851;19;153271;-55
2023/02/22 09:39:10;;;;;;;;;;;;;;;20.23;45.10;100852.19;7251505;19;153436;-56
2023/02/22 09:41:42;;;;;;;;;;;;;;;20.20;44.87;100864.03;7245330;19;155951;-56
2023/02/22 09:44:14;;;;;;;;;;;;;;;20.16;44.94;100863.00;7251053;19;152517;-56
2023/02/22 09:46:44;;;;;;;;;;;;;;;20.17;45.19;100868.28;7259829;19;155039;-56
2023/02/22 09:49:12;;;;;;;;;;;;;;;20.11;44.98;100865.88;7251662;19;153312;-56
2023/02/22 09:51:43;;;;;;;;;;;;;;;20.12;44.96;100864.75;7251182;19;153034;-56
2023/02/22 09:54:13;;;;;;;;;;;;;;;20.10;45.11;100869.81;7247353;19;154215;-56
2023/02/22 09:56:42;;;;;;;;;;;;;;;20.07;45.51;100862.88;7251996;19;154745;-56
2023/02/22 09:59:12;;;;;;;;;;;;;;;20.07;45.47;100864.84;7247462;19;155040;-56
2023/02/22 10:01:43;;;;;;;;;;;;;;;20.01;45.10;100857.66;7244190;19;154423;-56
2023/02/22 10:04:17;;;;;;;;;;;;;;;19.98;45.30;100862.75;7249137;19;157937;-56
2023/02/22 10:06:47;;;;;;;;;;;;;;;19.97;45.55;100860.25;7251402;19;152963;-56
2023/02/22 10:09:14;;;;;;;;;;;;;;;19.93;45.33;100862.81;7252541;19;154786;-56
2023/02/22 10:11:47;;;;;;;;;;;;;;;19.91;45.67;100861.44;7248452;19;152939;-56
2023/02/22 10:14:14;;;;;;;;;;;;;;;19.90;45.34;100863.41;7246606;19;154298;-56
2023/02/22 10:16:43;;;;;;;;;;;;;;;19.91;45.23;100858.66;7250159;19;153159;-56
2023/02/22 10:19:13;;;;;;;;;;;;;;;19.90;45.52;100860.63;7252449;19;153934;-57
2023/02/22 10:21:43;;;;;;;;;;;;;;;19.86;45.81;100859.56;7251341;19;153459;-56
2023/02/22 10:24:18;;;;;;;;;;;;;;;19.90;45.44;100854.16;7248941;19;153298;-56
2023/02/22 10:26:46;;;;;;;;;;;;;;;19.86;45.69;100859.56;7247771;19;153635;-56
2023/02/22 10:29:16;;;;;;;;;;;;;;;19.87;45.48;100854.78;7245172;19;154327;-56
2023/02/22 10:31:45;;;;;;;;;;;;;;;19.91;46.08;100851.06;7257964;19;153499;-55
2023/02/22 10:34:15;;;;;;;;;;;;;;;19.99;48.20;100853.16;7248320;19;154596;-57
2023/02/22 10:36:44;;;;;;;;;;;;;;;20.03;48.92;100852.56;7249293;19;153023;-57
2023/02/22 10:39:14;;;;;;;;;;;;;;;20.09;48.76;100857.78;7248147;19;153925;-57
2023/02/22 10:41:45;;;;;;;;;;;;;;;20.15;47.64;100859.34;7247039;19;152839;-57
2023/02/22 10:44:12;;;;;;;;;;;;;;;20.19;47.40;100857.59;7250008;19;152869;-57
2023/02/22 10:46:40;;;;;;;;;;;;;;;20.20;47.27;100856.47;7250856;19;153758;-57
2023/02/22 10:49:09;;;;;;;;;;;;;;;20.25;47.20;100858.34;7245904;19;154254;-57
2023/02/22 10:51:38;;;;;;;;;;;;;;;20.31;47.00;100860.75;7247140;19;154532;-57
2023/02/22 10:54:18;;;;;;;;;;;;;;;20.36;46.71;100859.81;7257318;19;153712;-57
2023/02/22 10:56:48;;;;;;;;;;;;;;;20.40;46.86;100852.44;7248121;19;152334;-57
2023/02/22 10:59:18;;;;;;;;;;;;;;;20.43;46.36;100854.66;7247395;19;154172;-57
2023/02/22 11:01:46;;;;;;;;;;;;;;;20.45;46.60;100854.31;7245263;19;154764;-57
2023/02/22 11:04:16;;;;;;;;;;;;;;;20.46;46.15;100848.41;7247932;19;154680;-57
2023/02/22 11:06:47;;;;;;;;;;;;;;;20.49;45.93;100853.41;7250964;19;153365;-57
2023/02/22 11:09:16;;;;;;;;;;;;;;;20.47;45.87;100855.69;7246177;19;153788;-57
2023/02/22 11:11:45;;;;;;;;;;;;;;;20.48;45.80;100851.75;7247800;19;153090;-57
2023/02/22 11:14:15;;;;;;;;;;;;;;;20.51;45.81;100847.47;7251290;19;153416;-57
2023/02/22 11:16:49;;;;;;;;;;;;;;;20.53;45.78;100842.41;7262320;19;154573;-57
2023/02/22 11:19:19;;;;;;;;;;;;;;;20.53;45.87;100854.47;7258136;19;154312;-57
2023/02/22 11:21:50;;;;;;;;;;;;;;;20.55;45.45;100857.78;7255804;19;154342;-57
2023/02/22 11:24:18;;;;;;;;;;;;;;;20.54;45.55;100856.09;7254793;19;152052;-57
2023/02/22 11:26:47;;;;;;;;;;;;;;;20.52;45.31;100851.97;7256084;19;153164;-57
2023/02/22 11:29:18;;;;;;;;;;;;;;;20.53;45.73;100862.88;7253012;19;154839;-57
2023/02/22 11:31:47;;;;;;;;;;;;;;;20.52;45.28;100864.03;7254688;19;154167;-57
2023/02/22 11:34:18;;;;;;;;;;;;;;;20.50;45.52;100857.88;7254067;19;152499;-57
2023/02/22 11:36:45;;;;;;;;;;;;;;;20.48;45.30;100860.19;7261708;19;154148;-57
2023/02/22 11:39:15;;;;;;;;;;;;;;;20.47;45.36;100861.31;7254166;19;153553;-57
2023/02/22 11:41:43;;;;;;;;;;;;;;;20.44;45.90;100855.50;7253509;19;152672;-57
2023/02/22 11:44:13;;;;;;;;;;;;;;;20.45;45.46;100849.56;7257426;19;154798;-57
2023/02/22 11:46:41;;;;;;;;;;;;;;;20.43;45.55;100849.03;7252976;19;154896;-57
2023/02/22 11:49:10;;;;;;;;;;;;;;;20.37;45.57;100861.50;7251971;19;153213;-57
2023/02/22 11:51:40;;;;;;;;;;;;;;;20.36;45.58;100857.03;7254347;19;154764;-57
2023/02/22 11:54:11;;;;;;;;;;;;;;;20.38;45.82;100863.16;7252923;19;154886;-57
2023/02/22 11:56:42;;;;;;;;;;;;;;;20.35;45.84;100859.00;7254140;19;154342;-57
2023/02/22 11:59:13;;;;;;;;;;;;;;;20.32;45.41;100862.44;7259907;19;152877;-56
2023/02/22 12:01:40;;;;;;;;;;;;;;;20.27;45.76;100854.06;7249724;19;155879;-57
2023/02/22 12:04:08;;;;;;;;;;;;;;;20.31;45.56;100854.31;7249430;19;153556;-57
2023/02/22 12:06:39;;;;;;;;;;;;;;;20.32;45.56;100851.19;7256280;19;153238;-57
2023/02/22 12:09:12;;;;;;;;;;;;;;;20.27;45.58;100845.66;7251558;19;154338;-57
2023/02/22 12:11:45;;;;;;;;;;;;;;;20.22;45.79;100845.75;7253950;19;152925;-57
2023/02/22 12:14:16;;;;;;;;;;;;;;;20.22;45.63;100851.34;7252367;19;152865;-57
2023/02/22 12:16:46;;;;;;;;;;;;;;;20.18;45.86;100853.13;7254905;19;154479;-57
2023/02/22 12:19:16;;;;;;;;;;;;;;;20.22;45.67;100850.50;7254725;19;153104;-57
2023/02/22 12:21:47;;;;;;;;;;;;;;;20.20;45.83;100850.84;7260194;19;154142;-57
2023/02/22 12:24:17;;;;;;;;;;;;;;;20.20;45.58;100850.00;7252154;19;154518;-56
2023/02/22 12:26:47;;;;;;;;;;;;;;;20.15;45.88;100859.34;7254222;19;154361;-57
2023/02/22 12:29:14;;;;;;;;;;;;;;;20.17;45.82;100859.84;7248889;19;153584;-57
2023/02/22 12:31:45;;;;;;;;;;;;;;;20.17;45.63;100851.44;7252864;19;153642;-56
2023/02/22 12:34:20;;;;;;;;;;;;;;;20.14;45.92;100854.88;7255412;19;153454;-56
2023/02/22 12:36:50;;;;;;;;;;;;;;;20.12;45.97;100856.34;7252623;19;153771;-56
2023/02/22 12:39:20;;;;;;;;;;;;;;;20.13;45.75;100852.38;7250335;19;153572;-56